Time;durP1;ratioP1;P1;durP2;ratioP2;P2;SDS_P1;SDS_P2;PMS_P1;PMS_P2;Temp;Humidity;BMP_temperature;BMP_pressure;BME280_temperature;BME280_humidity;BME280_pressure;Samples;Min_cycle;Max_cycle;Signal;HPM_P1;HPM_P2
2024/01/01 00:01:44;;;;;;;;;;;22.30;37.90;;;;;;5074764;28;19968;-56
2024/01/01 00:04:11;;;;;;;;;;;22.20;37.90;;;;;;5073619;28;19925;-54
2024/01/01 00:06:38;;;;;;;;;;;22.20;37.90;;;;;;5074149;28;20442;-55
2024/01/01 00:09:04;;;;;;;;;;;22.20;37.90;;;;;;5074281;28;19928;-55
2024/01/01 00:11:31;;;;;;;;;;;22.20;37.90;;;;;;5074120;28;20400;-56
2024/01/01 00:13:58;;;;;;;;;;;22.20;37.90;;;;;;5074248;28;19928;-55
2024/01/01 00:16:25;;;;;;;;;;;22.20;37.90;;;;;;5073977;28;20335;-55
2024/01/01 00:18:52;;;;;;;;;;;22.30;38.00;;;;;;5074199;28;20001;-54
2024/01/01 00:21:19;;;;;;;;;;;22.20;37.90;;;;;;5074073;28;20443;-53
2024/01/01 00:23:46;;;;;;;;;;;22.20;38.00;;;;;;5073988;28;20420;-56
2024/01/01 00:26:13;;;;;;;;;;;22.20;38.00;;;;;;5074107;28;19925;-56
2024/01/01 00:28:40;;;;;;;;;;;22.20;38.00;;;;;;5073870;28;19924;-55
2024/01/01 00:31:07;;;;;;;;;;;22.20;38.00;;;;;;5073739;28;19924;-55
2024/01/01 00:33:34;;;;;;;;;;;22.20;38.00;;;;;;5073863;28;19959;-56
2024/01/01 00:36:01;;;;;;;;;;;22.20;38.00;;;;;;5073642;28;20374;-56
2024/01/01 00:38:28;;;;;;;;;;;22.20;38.00;;;;;;5073375;28;19925;-54
2024/01/01 00:40:55;;;;;;;;;;;22.20;38.00;;;;;;5073577;28;20027;-55
2024/01/01 00:43:22;;;;;;;;;;;22.20;38.00;;;;;;5073516;28;19924;-56
2024/01/01 00:45:49;;;;;;;;;;;22.20;38.00;;;;;;5073538;28;20381;-57
2024/01/01 00:48:19;;;;;;;;;;;22.20;38.00;;;;;;5073316;28;20374;-56
2024/01/01 00:50:46;;;;;;;;;;;22.20;38.00;;;;;;5073382;28;20007;-55
2024/01/01 00:53:13;;;;;;;;;;;22.20;38.00;;;;;;5073227;28;19924;-57
2024/01/01 00:55:40;;;;;;;;;;;22.20;38.00;;;;;;5073424;28;19938;-58
2024/01/01 00:58:07;;;;;;;;;;;22.20;38.00;;;;;;5073307;28;19996;-56
2024/01/01 01:00:34;;;;;;;;;;;22.20;38.00;;;;;;5073563;28;20297;-56
2024/01/01 01:03:01;;;;;;;;;;;22.20;37.90;;;;;;5073182;28;19925;-56
2024/01/01 01:05:29;;;;;;;;;;;22.20;37.90;;;;;;5073631;28;19924;-56
2024/01/01 01:07:56;;;;;;;;;;;22.20;37.90;;;;;;5073654;28;19931;-56
2024/01/01 01:10:23;;;;;;;;;;;22.20;37.90;;;;;;5073233;28;19932;-56
2024/01/01 01:12:53;;;;;;;;;;;22.20;38.00;;;;;;5073168;28;19929;-57
2024/01/01 01:15:22;;;;;;;;;;;22.20;38.00;;;;;;5073287;28;19959;-54
2024/01/01 01:17:48;;;;;;;;;;;22.20;38.60;;;;;;5072567;28;19959;-54
2024/01/01 01:20:15;;;;;;;;;;;22.20;38.00;;;;;;5073437;28;19978;-54
2024/01/01 01:22:42;;;;;;;;;;;22.10;38.00;;;;;;5073323;28;19924;-57
2024/01/01 01:25:10;;;;;;;;;;;22.10;37.90;;;;;;5073292;28;19962;-56
2024/01/01 01:27:37;;;;;;;;;;;22.10;37.90;;;;;;5073223;28;20358;-55
2024/01/01 01:30:04;;;;;;;;;;;22.10;37.90;;;;;;5072993;28;19937;-54
2024/01/01 01:32:31;;;;;;;;;;;22.20;38.00;;;;;;5073037;28;19931;-56
2024/01/01 01:34:58;;;;;;;;;;;22.10;38.00;;;;;;5073204;28;19924;-56
2024/01/01 01:37:25;;;;;;;;;;;22.10;38.00;;;;;;5055331;28;19924;-54
2024/01/01 01:39:52;;;;;;;;;;;22.20;38.00;;;;;;5072963;28;19968;-55
2024/01/01 01:42:19;;;;;;;;;;;22.10;38.00;;;;;;5072887;28;19954;-56
2024/01/01 01:44:46;;;;;;;;;;;22.10;38.00;;;;;;5072715;28;20002;-56
2024/01/01 01:47:13;;;;;;;;;;;22.10;38.00;;;;;;5072655;28;19925;-56
2024/01/01 01:49:41;;;;;;;;;;;22.10;38.00;;;;;;5072885;28;19971;-56
2024/01/01 01:52:09;;;;;;;;;;;22.10;38.00;;;;;;5072680;28;20350;-56
2024/01/01 01:54:36;;;;;;;;;;;22.10;38.00;;;;;;5072543;28;19928;-55
2024/01/01 01:57:04;;;;;;;;;;;22.10;38.00;;;;;;5072646;28;20007;-56
2024/01/01 01:59:31;;;;;;;;;;;22.10;38.00;;;;;;5072661;28;19930;-56
2024/01/01 02:01:58;;;;;;;;;;;22.10;38.00;;;;;;5072746;28;19925;-55
2024/01/01 02:04:25;;;;;;;;;;;22.10;38.00;;;;;;5072988;28;19924;-56
2024/01/01 02:06:52;;;;;;;;;;;22.10;38.00;;;;;;5072537;28;19928;-57
2024/01/01 02:09:19;;;;;;;;;;;22.10;37.90;;;;;;5072552;28;19924;-54
2024/01/01 02:11:46;;;;;;;;;;;22.20;38.00;;;;;;5072815;28;19978;-56
2024/01/01 02:14:14;;;;;;;;;;;22.20;38.00;;;;;;5072552;28;20408;-56
2024/01/01 02:16:41;;;;;;;;;;;22.20;38.00;;;;;;5072383;28;19932;-55
2024/01/01 02:19:16;;;;;;;;;;;22.20;38.00;;;;;;5072583;28;19924;-58
2024/01/01 02:21:43;;;;;;;;;;;22.20;38.00;;;;;;5072723;28;20270;-57
2024/01/01 02:24:09;;;;;;;;;;;22.10;37.90;;;;;;5072644;28;19925;-56
2024/01/01 02:26:37;;;;;;;;;;;22.10;38.00;;;;;;5072367;28;19982;-56
2024/01/01 02:29:05;;;;;;;;;;;22.10;38.00;;;;;;5076292;28;19928;-56
2024/01/01 02:31:32;;;;;;;;;;;22.10;38.00;;;;;;5076063;28;19928;-54
2024/01/01 02:33:59;;;;;;;;;;;22.10;38.00;;;;;;5076242;28;20328;-56
2024/01/01 02:36:26;;;;;;;;;;;22.10;38.00;;;;;;5076102;28;19928;-56
2024/01/01 02:38:53;;;;;;;;;;;22.10;38.10;;;;;;5075799;28;20403;-56
2024/01/01 02:41:20;;;;;;;;;;;22.10;38.00;;;;;;5076295;28;19924;-55
2024/01/01 02:43:47;;;;;;;;;;;22.10;38.10;;;;;;5076055;28;20370;-56
2024/01/01 02:46:14;;;;;;;;;;;22.10;38.10;;;;;;5075820;28;19932;-57
2024/01/01 02:48:41;;;;;;;;;;;22.00;38.10;;;;;;5075650;28;19924;-55
2024/01/01 02:51:08;;;;;;;;;;;22.10;38.10;;;;;;5075713;28;20267;-55
2024/01/01 02:53:35;;;;;;;;;;;22.10;38.10;;;;;;5075740;28;19928;-56
2024/01/01 02:56:02;;;;;;;;;;;22.10;38.10;;;;;;5075612;28;19970;-54
2024/01/01 02:58:29;;;;;;;;;;;22.10;38.10;;;;;;5075326;28;19994;-56
2024/01/01 03:00:56;;;;;;;;;;;22.00;38.10;;;;;;5075694;28;19925;-56
2024/01/01 03:03:23;;;;;;;;;;;22.00;38.00;;;;;;5075282;28;19991;-56
2024/01/01 03:05:50;;;;;;;;;;;22.00;38.00;;;;;;5075301;28;19932;-57
2024/01/01 03:08:17;;;;;;;;;;;22.10;38.10;;;;;;5075706;28;19925;-57
2024/01/01 03:10:44;;;;;;;;;;;22.10;38.10;;;;;;5075686;28;19977;-57
2024/01/01 03:13:11;;;;;;;;;;;22.10;38.10;;;;;;5075486;28;19925;-57
2024/01/01 03:15:38;;;;;;;;;;;22.10;38.10;;;;;;5075185;28;19935;-56
2024/01/01 03:18:05;;;;;;;;;;;22.10;38.10;;;;;;5074994;28;20443;-56
2024/01/01 03:20:35;;;;;;;;;;;22.10;38.00;;;;;;5074884;28;20295;-56
2024/01/01 03:23:02;;;;;;;;;;;22.10;38.00;;;;;;5075012;28;19935;-56
2024/01/01 03:25:28;;;;;;;;;;;22.10;38.00;;;;;;5074985;28;19928;-55
2024/01/01 03:27:55;;;;;;;;;;;22.10;38.00;;;;;;5075067;28;19955;-56
2024/01/01 03:30:23;;;;;;;;;;;22.10;38.00;;;;;;5075375;28;19924;-56
2024/01/01 03:32:50;;;;;;;;;;;22.10;38.00;;;;;;5074930;28;19928;-53
2024/01/01 03:35:19;;;;;;;;;;;22.10;38.00;;;;;;5075253;28;20361;-55
2024/01/01 03:37:46;;;;;;;;;;;22.10;38.00;;;;;;5074914;28;20020;-58
2024/01/01 03:40:13;;;;;;;;;;;22.10;38.20;;;;;;5074910;28;19924;-63
2024/01/01 03:42:40;;;;;;;;;;;22.10;38.10;;;;;;5074859;28;19928;-60
2024/01/01 03:45:08;;;;;;;;;;;22.10;38.10;;;;;;5074941;28;19931;-58
2024/01/01 03:47:35;;;;;;;;;;;22.10;38.10;;;;;;5074805;28;19925;-56
2024/01/01 03:50:02;;;;;;;;;;;22.10;38.10;;;;;;5057291;28;20002;-56
2024/01/01 03:52:29;;;;;;;;;;;22.10;38.10;;;;;;5074086;28;19925;-58
2024/01/01 03:54:57;;;;;;;;;;;22.10;38.10;;;;;;5074306;28;19930;-58
2024/01/01 03:57:24;;;;;;;;;;;22.00;38.00;;;;;;5074249;28;19925;-58
2024/01/01 03:59:52;;;;;;;;;;;22.00;38.00;;;;;;5074517;28;20370;-62
2024/01/01 04:02:18;;;;;;;;;;;22.10;38.10;;;;;;5074013;28;19925;-57
2024/01/01 04:04:45;;;;;;;;;;;22.00;38.00;;;;;;5074505;28;19963;-59
2024/01/01 04:07:13;;;;;;;;;;;22.00;38.00;;;;;;5074499;28;19970;-57
2024/01/01 04:09:39;;;;;;;;;;;22.00;38.10;;;;;;5074523;28;20015;-63
2024/01/01 04:12:06;;;;;;;;;;;22.00;38.00;;;;;;5074388;28;20007;-60
2024/01/01 04:14:33;;;;;;;;;;;22.10;38.10;;;;;;5074334;28;19939;-61
2024/01/01 04:17:03;;;;;;;;;;;22.10;38.10;;;;;;5073978;28;19925;-56
2024/01/01 04:19:30;;;;;;;;;;;22.10;38.10;;;;;;5074279;28;19924;-58
2024/01/01 04:21:56;;;;;;;;;;;22.10;38.10;;;;;;5074204;28;19978;-62
2024/01/01 04:24:23;;;;;;;;;;;22.10;38.10;;;;;;5073801;28;19925;-60
2024/01/01 04:26:50;;;;;;;;;;;22.10;38.00;;;;;;5056185;28;19924;-59
2024/01/01 04:29:17;;;;;;;;;;;22.10;38.00;;;;;;5074016;28;20390;-60
2024/01/01 04:31:45;;;;;;;;;;;22.10;38.00;;;;;;5073475;28;20297;-56
2024/01/01 04:34:12;;;;;;;;;;;22.10;38.00;;;;;;5073907;28;20315;-57
2024/01/01 04:36:39;;;;;;;;;;;22.10;38.00;;;;;;5073548;28;19935;-56
2024/01/01 04:39:06;;;;;;;;;;;22.10;37.90;;;;;;5074237;28;19924;-56
2024/01/01 04:41:34;;;;;;;;;;;22.10;37.90;;;;;;5073720;28;19986;-55
2024/01/01 04:44:01;;;;;;;;;;;22.20;37.80;;;;;;5073720;28;20378;-55
2024/01/01 04:46:28;;;;;;;;;;;22.10;37.60;;;;;;5073306;28;19932;-54
2024/01/01 04:48:55;;;;;;;;;;;22.20;37.50;;;;;;5055693;28;19932;-54
2024/01/01 04:51:22;;;;;;;;;;;22.20;37.50;;;;;;5073225;28;20275;-56
2024/01/01 04:53:50;;;;;;;;;;;22.20;37.50;;;;;;5072879;28;19924;-55
2024/01/01 04:56:19;;;;;;;;;;;22.20;37.40;;;;;;5073324;28;19924;-55
2024/01/01 04:58:46;;;;;;;;;;;22.20;37.40;;;;;;5073131;28;19928;-57
2024/01/01 05:01:13;;;;;;;;;;;22.10;37.30;;;;;;5073672;28;20270;-55
2024/01/01 05:03:40;;;;;;;;;;;22.10;37.40;;;;;;5073170;28;20408;-55
2024/01/01 05:06:07;;;;;;;;;;;22.10;38.00;;;;;;5073220;28;19931;-55
2024/01/01 05:08:34;;;;;;;;;;;22.10;37.40;;;;;;5073107;28;19967;-56
2024/01/01 05:11:04;;;;;;;;;;;22.10;37.40;;;;;;5073589;28;19932;-55
2024/01/01 05:13:31;;;;;;;;;;;22.10;37.40;;;;;;5072951;28;19933;-56
2024/01/01 05:15:58;;;;;;;;;;;22.20;37.30;;;;;;5073392;28;19924;-56
2024/01/01 05:18:25;;;;;;;;;;;22.20;37.30;;;;;;5073098;28;19924;-54
2024/01/01 05:20:52;;;;;;;;;;;22.20;37.30;;;;;;5073476;28;19986;-57
2024/01/01 05:23:19;;;;;;;;;;;22.20;37.20;;;;;;5073263;28;19924;-57
2024/01/01 05:25:46;;;;;;;;;;;22.20;37.10;;;;;;5072089;28;19929;-57
2024/01/01 05:28:13;;;;;;;;;;;22.20;37.00;;;;;;5073311;28;19967;-56
2024/01/01 05:30:40;;;;;;;;;;;22.20;37.00;;;;;;5073117;28;20019;-57
2024/01/01 05:33:07;;;;;;;;;;;22.20;36.90;;;;;;5072883;28;20439;-55
2024/01/01 05:35:36;;;;;;;;;;;22.20;36.80;;;;;;5073003;28;19924;-57
2024/01/01 05:38:03;;;;;;;;;;;22.20;36.80;;;;;;5072597;28;20278;-56
2024/01/01 05:40:30;;;;;;;;;;;22.20;36.80;;;;;;5072731;28;19924;-57
2024/01/01 05:42:58;;;;;;;;;;;22.30;36.90;;;;;;5073048;28;19968;-57
2024/01/01 05:45:25;;;;;;;;;;;22.30;36.90;;;;;;5073106;28;19978;-57
2024/01/01 05:47:52;;;;;;;;;;;22.30;36.80;;;;;;5072721;28;19971;-56
2024/01/01 05:50:22;;;;;;;;;;;22.30;36.80;;;;;;5073026;28;20328;-56
2024/01/01 05:52:49;;;;;;;;;;;22.30;36.70;;;;;;5072938;28;19947;-56
2024/01/01 05:55:16;;;;;;;;;;;22.30;36.70;;;;;;5072734;28;19974;-57
2024/01/01 05:57:43;;;;;;;;;;;22.30;36.70;;;;;;5072418;28;19929;-58
2024/01/01 06:00:12;;;;;;;;;;;22.20;36.70;;;;;;5073109;28;20280;-56
2024/01/01 06:02:39;;;;;;;;;;;22.20;36.60;;;;;;5074015;28;19934;-55
2024/01/01 06:05:06;;;;;;;;;;;22.20;36.60;;;;;;5076706;28;19928;-56
2024/01/01 06:07:33;;;;;;;;;;;22.20;36.60;;;;;;5076592;28;19936;-56
2024/01/01 06:10:00;;;;;;;;;;;22.20;36.60;;;;;;5076891;28;20003;-57
2024/01/01 06:12:27;;;;;;;;;;;22.20;36.60;;;;;;5076329;28;19946;-56
2024/01/01 06:14:54;;;;;;;;;;;22.20;36.60;;;;;;5076051;28;19925;-56
2024/01/01 06:17:21;;;;;;;;;;;22.20;36.50;;;;;;5076047;28;19924;-56
2024/01/01 06:19:50;;;;;;;;;;;22.20;36.60;;;;;;5076420;28;19978;-56
2024/01/01 06:22:18;;;;;;;;;;;22.20;36.50;;;;;;5076322;28;19924;-53
2024/01/01 06:24:45;;;;;;;;;;;22.20;36.50;;;;;;5076263;28;19928;-56
2024/01/01 06:27:11;;;;;;;;;;;22.20;36.50;;;;;;5076385;28;19968;-56
2024/01/01 06:29:38;;;;;;;;;;;22.20;36.50;;;;;;5076098;28;19928;-57
2024/01/01 06:32:06;;;;;;;;;;;22.20;36.50;;;;;;5076006;28;19930;-56
2024/01/01 06:34:33;;;;;;;;;;;22.20;36.50;;;;;;5075981;28;19940;-55
2024/01/01 06:37:00;;;;;;;;;;;22.20;36.50;;;;;;5075772;28;19978;-56
2024/01/01 06:39:27;;;;;;;;;;;22.20;36.50;;;;;;5076044;28;19924;-57
2024/01/01 06:41:54;;;;;;;;;;;22.20;36.50;;;;;;5076363;28;19924;-55
2024/01/01 06:44:25;;;;;;;;;;;22.20;36.50;;;;;;5075816;28;19924;-56
2024/01/01 06:46:52;;;;;;;;;;;22.20;36.50;;;;;;5075785;28;19924;-58
2024/01/01 06:49:19;;;;;;;;;;;22.20;36.40;;;;;;5076162;28;19924;-55
2024/01/01 06:51:50;;;;;;;;;;;22.20;36.40;;;;;;5075933;28;20289;-55
2024/01/01 06:54:17;;;;;;;;;;;22.20;36.40;;;;;;5075513;28;20424;-56
2024/01/01 06:56:44;;;;;;;;;;;22.20;36.40;;;;;;5075405;28;19942;-56
2024/01/01 06:59:12;;;;;;;;;;;22.20;36.40;;;;;;5075737;28;20382;-57
2024/01/01 07:01:41;;;;;;;;;;;22.20;36.40;;;;;;5075267;28;20457;-54
2024/01/01 07:04:09;;;;;;;;;;;22.20;36.40;;;;;;5058479;28;20286;-57
2024/01/01 07:06:37;;;;;;;;;;;22.20;36.40;;;;;;5075509;28;19970;-57
2024/01/01 07:09:04;;;;;;;;;;;22.20;36.40;;;;;;5075744;28;19974;-57
2024/01/01 07:11:32;;;;;;;;;;;22.20;36.40;;;;;;5075393;28;19947;-56
2024/01/01 07:13:59;;;;;;;;;;;22.20;36.50;;;;;;5075005;28;19978;-56
2024/01/01 07:16:27;;;;;;;;;;;22.20;36.40;;;;;;5075216;28;19925;-57
2024/01/01 07:18:54;;;;;;;;;;;22.20;36.30;;;;;;5074965;28;19975;-55
2024/01/01 07:21:20;;;;;;;;;;;22.20;36.30;;;;;;5075645;28;19924;-56
2024/01/01 07:23:47;;;;;;;;;;;22.20;36.30;;;;;;5075061;28;19925;-56
2024/01/01 07:26:15;;;;;;;;;;;22.20;36.20;;;;;;5075305;28;19947;-56
2024/01/01 07:28:42;;;;;;;;;;;22.20;36.20;;;;;;5075324;28;20336;-56
2024/01/01 07:31:10;;;;;;;;;;;22.20;36.20;;;;;;5075253;28;19978;-55
2024/01/01 07:33:38;;;;;;;;;;;22.20;36.20;;;;;;5074356;28;20021;-56
2024/01/01 07:36:11;;;;;;;;;;;22.20;36.20;;;;;;5074979;28;19967;-56
2024/01/01 07:38:38;;;;;;;;;;;22.20;36.20;;;;;;5074818;28;19933;-54
2024/01/01 07:41:05;;;;;;;;;;;22.20;36.10;;;;;;5075163;28;19933;-56
2024/01/01 07:43:32;;;;;;;;;;;22.20;36.10;;;;;;5073457;28;19928;-55
2024/01/01 07:45:59;;;;;;;;;;;22.20;36.10;;;;;;5074100;28;19956;-56
2024/01/01 07:48:27;;;;;;;;;;;22.20;36.10;;;;;;5074817;28;20262;-56
2024/01/01 07:50:54;;;;;;;;;;;22.20;36.10;;;;;;5074690;28;19924;-52
2024/01/01 07:53:20;;;;;;;;;;;22.20;36.10;;;;;;5074587;28;19947;-56
2024/01/01 07:55:47;;;;;;;;;;;22.20;36.10;;;;;;5074538;28;20329;-56
2024/01/01 07:58:14;;;;;;;;;;;22.30;36.10;;;;;;5074293;28;19928;-52
2024/01/01 08:00:41;;;;;;;;;;;22.30;36.10;;;;;;5074495;28;19925;-53
2024/01/01 08:03:08;;;;;;;;;;;22.30;36.10;;;;;;5074369;28;19924;-55
2024/01/01 08:05:35;;;;;;;;;;;22.30;36.10;;;;;;5056795;28;19925;-55
2024/01/01 08:08:02;;;;;;;;;;;22.30;36.10;;;;;;5074139;28;19939;-56
2024/01/01 08:10:30;;;;;;;;;;;22.30;36.00;;;;;;5074321;28;19924;-57
2024/01/01 08:12:57;;;;;;;;;;;22.30;36.00;;;;;;5073951;28;19924;-55
2024/01/01 08:15:24;;;;;;;;;;;22.30;36.00;;;;;;5073865;28;20126;-54
2024/01/01 08:17:51;;;;;;;;;;;22.40;36.00;;;;;;5074042;28;19932;-55
2024/01/01 08:20:19;;;;;;;;;;;22.30;36.00;;;;;;5074032;28;19928;-55
2024/01/01 08:22:47;;;;;;;;;;;22.40;35.90;;;;;;5056523;28;20027;-55
2024/01/01 08:25:14;;;;;;;;;;;22.40;35.90;;;;;;5055756;28;19966;-56
2024/01/01 08:27:41;;;;;;;;;;;22.40;35.90;;;;;;5073056;28;19928;-52
2024/01/01 08:30:08;;;;;;;;;;;22.40;35.80;;;;;;5073910;28;20449;-58
2024/01/01 08:32:35;;;;;;;;;;;22.40;35.80;;;;;;5073771;28;19931;-57
2024/01/01 08:35:02;;;;;;;;;;;22.40;36.40;;;;;;5073906;28;19925;-56
2024/01/01 08:37:29;;;;;;;;;;;22.50;35.80;;;;;;5073413;28;20320;-56
2024/01/01 08:39:56;;;;;;;;;;;22.50;35.80;;;;;;5073641;28;19924;-56
2024/01/01 08:42:23;;;;;;;;;;;22.50;35.80;;;;;;5073949;28;20306;-57
2024/01/01 08:44:50;;;;;;;;;;;22.50;35.70;;;;;;5073525;28;19931;-56
2024/01/01 08:47:17;;;;;;;;;;;22.50;35.60;;;;;;5056112;28;19978;-57
2024/01/01 08:49:44;;;;;;;;;;;22.50;35.60;;;;;;5074155;28;19928;-56
2024/01/01 08:52:11;;;;;;;;;;;22.50;35.60;;;;;;5073340;28;19924;-55
2024/01/01 08:54:38;;;;;;;;;;;22.60;35.60;;;;;;5073337;28;19935;-57
2024/01/01 08:57:05;;;;;;;;;;;22.60;35.60;;;;;;5073257;28;19970;-57
2024/01/01 08:59:32;;;;;;;;;;;22.60;35.60;;;;;;5073288;28;19939;-57
2024/01/01 09:01:59;;;;;;;;;;;22.60;35.50;;;;;;5073608;28;19931;-57
2024/01/01 09:04:26;;;;;;;;;;;22.60;35.50;;;;;;5073557;28;19924;-56
2024/01/01 09:06:53;;;;;;;;;;;22.60;35.50;;;;;;5073212;28;19924;-56
2024/01/01 09:09:22;;;;;;;;;;;22.60;35.50;;;;;;5073633;28;19931;-56
2024/01/01 09:11:49;;;;;;;;;;;22.70;35.50;;;;;;5073169;28;20388;-57
2024/01/01 09:14:16;;;;;;;;;;;22.60;35.40;;;;;;5073305;28;19978;-56
2024/01/01 09:16:43;;;;;;;;;;;22.60;35.40;;;;;;5072985;28;19924;-56
2024/01/01 09:19:10;;;;;;;;;;;22.60;35.40;;;;;;5073085;28;19924;-56
2024/01/01 09:21:38;;;;;;;;;;;22.70;35.50;;;;;;5073401;28;19970;-57
2024/01/01 09:24:07;;;;;;;;;;;22.70;35.50;;;;;;5055816;28;20347;-56
2024/01/01 09:26:35;;;;;;;;;;;22.70;36.00;;;;;;5072676;28;19939;-54
2024/01/01 09:29:02;;;;;;;;;;;22.70;35.50;;;;;;5073498;28;19970;-55
2024/01/01 09:31:29;;;;;;;;;;;22.60;35.40;;;;;;5072991;28;19925;-56
2024/01/01 09:34:00;;;;;;;;;;;22.70;35.40;;;;;;5073137;28;20254;-56
2024/01/01 09:36:29;;;;;;;;;;;22.70;35.40;;;;;;5074141;28;20457;-56
2024/01/01 09:38:56;;;;;;;;;;;22.70;35.40;;;;;;5077330;28;20027;-52
2024/01/01 09:41:24;;;;;;;;;;;22.70;35.40;;;;;;5077272;28;19925;-56
2024/01/01 09:43:51;;;;;;;;;;;22.70;35.40;;;;;;5076916;28;19931;-57
2024/01/01 09:46:18;;;;;;;;;;;22.70;35.40;;;;;;5059430;28;19924;-53
2024/01/01 09:48:45;;;;;;;;;;;22.70;35.40;;;;;;5077209;28;19978;-56
2024/01/01 09:51:13;;;;;;;;;;;22.70;35.30;;;;;;5077343;28;19931;-56
2024/01/01 09:53:40;;;;;;;;;;;22.80;35.40;;;;;;5076988;28;19929;-56
2024/01/01 09:56:07;;;;;;;;;;;22.80;35.40;;;;;;5058943;28;20433;-56
2024/01/01 09:58:41;;;;;;;;;;;22.80;35.30;;;;;;5076935;28;19947;-57
2024/01/01 10:01:10;;;;;;;;;;;22.80;35.30;;;;;;5076655;28;20019;-56
2024/01/01 10:03:37;;;;;;;;;;;22.80;35.30;;;;;;5076780;28;19931;-56
2024/01/01 10:06:08;;;;;;;;;;;22.80;35.30;;;;;;5076770;28;19973;-55
2024/01/01 10:08:36;;;;;;;;;;;22.90;35.30;;;;;;5076669;28;19935;-55
2024/01/01 10:11:15;;;;;;;;;;;22.90;35.30;;;;;;5076804;28;19925;-56
2024/01/01 10:13:43;;;;;;;;;;;22.90;35.20;;;;;;5076387;28;20382;-57
2024/01/01 10:16:10;;;;;;;;;;;22.90;35.20;;;;;;5076189;28;20442;-57
2024/01/01 10:18:37;;;;;;;;;;;22.90;35.10;;;;;;5076350;28;19924;-57
2024/01/01 10:21:11;;;;;;;;;;;23.00;35.20;;;;;;5076266;28;19928;-56
2024/01/01 10:23:41;;;;;;;;;;;23.00;35.10;;;;;;5076109;28;20385;-53
2024/01/01 10:26:10;;;;;;;;;;;23.00;35.10;;;;;;5059258;28;19924;-56
2024/01/01 10:28:40;;;;;;;;;;;23.00;35.10;;;;;;5076251;28;19990;-55
2024/01/01 10:31:12;;;;;;;;;;;23.00;35.20;;;;;;5076380;28;19928;-54
2024/01/01 10:33:40;;;;;;;;;;;23.00;35.10;;;;;;5076260;28;19929;-53
2024/01/01 10:36:08;;;;;;;;;;;23.00;35.00;;;;;;5076287;28;20298;-55
2024/01/01 10:38:36;;;;;;;;;;;23.00;35.00;;;;;;5075804;28;20347;-54
2024/01/01 10:41:04;;;;;;;;;;;23.10;35.10;;;;;;5076192;28;20010;-56
2024/01/01 10:43:31;;;;;;;;;;;23.00;35.10;;;;;;5075515;28;20279;-53
2024/01/01 10:46:03;;;;;;;;;;;23.10;35.10;;;;;;5076225;28;20157;-56
2024/01/01 10:48:31;;;;;;;;;;;23.10;35.10;;;;;;5074689;28;20382;-56
2024/01/01 10:51:04;;;;;;;;;;;23.10;35.10;;;;;;5075858;28;20367;-52
2024/01/01 10:53:51;;;;;;;;;;;23.10;35.10;;;;;;5075340;28;20039;-57
2024/01/01 10:56:34;;;;;;;;;;;23.10;35.10;;;;;;5075699;28;19932;-57
2024/01/01 10:59:14;;;;;;;;;;;23.10;35.10;;;;;;5075616;28;20401;-57
2024/01/01 11:01:41;;;;;;;;;;;23.10;35.10;;;;;;5075664;28;20183;-58
2024/01/01 11:04:11;;;;;;;;;;;23.10;35.10;;;;;;5075791;28;19947;-57
2024/01/01 11:06:44;;;;;;;;;;;23.10;35.10;;;;;;5075303;28;19967;-56
2024/01/01 11:09:32;;;;;;;;;;;23.10;35.10;;;;;;5075435;28;20014;-56
2024/01/01 11:12:01;;;;;;;;;;;23.10;35.10;;;;;;5060681;28;19925;-55
2024/01/01 11:14:37;;;;;;;;;;;23.10;35.10;;;;;;5075088;28;19967;-57
2024/01/01 11:17:06;;;;;;;;;;;23.10;35.10;;;;;;5074394;28;19951;-57
2024/01/01 11:19:41;;;;;;;;;;;23.10;35.10;;;;;;5075119;28;20003;-56
2024/01/01 11:22:33;;;;;;;;;;;23.10;35.10;;;;;;5075436;28;19924;-56
2024/01/01 11:25:01;;;;;;;;;;;23.10;35.00;;;;;;5075477;28;19924;-56
2024/01/01 11:27:31;;;;;;;;;;;23.10;35.00;;;;;;5075241;28;19924;-57
2024/01/01 11:30:00;;;;;;;;;;;23.10;35.00;;;;;;5075194;28;19924;-56
2024/01/01 11:32:30;;;;;;;;;;;23.10;35.00;;;;;;5075204;28;19940;-56
2024/01/01 11:35:11;;;;;;;;;;;23.10;35.00;;;;;;5075325;28;19925;-56
2024/01/01 11:37:43;;;;;;;;;;;23.20;35.00;;;;;;5074572;28;19980;-58
2024/01/01 11:40:10;;;;;;;;;;;23.20;35.00;;;;;;5074027;28;19932;-56
2024/01/01 11:42:38;;;;;;;;;;;23.20;35.00;;;;;;5074673;28;19924;-56
2024/01/01 11:45:09;;;;;;;;;;;23.20;35.00;;;;;;5074015;28;20332;-56
2024/01/01 11:47:37;;;;;;;;;;;23.30;35.10;;;;;;5074672;28;20015;-57
2024/01/01 11:50:05;;;;;;;;;;;23.30;35.10;;;;;;5075036;28;19928;-54
2024/01/01 11:52:32;;;;;;;;;;;23.30;35.00;;;;;;5074879;28;19931;-56
2024/01/01 11:54:59;;;;;;;;;;;23.30;34.90;;;;;;5074749;28;20024;-55
2024/01/01 11:57:26;;;;;;;;;;;23.30;34.80;;;;;;5074184;28;19986;-56
2024/01/01 11:59:55;;;;;;;;;;;23.30;34.80;;;;;;5073696;28;19924;-57
2024/01/01 12:02:22;;;;;;;;;;;23.40;34.80;;;;;;5074424;28;19947;-56
2024/01/01 12:04:51;;;;;;;;;;;23.40;34.80;;;;;;5074516;28;20455;-55
2024/01/01 12:07:32;;;;;;;;;;;23.40;34.80;;;;;;5073883;28;19930;-56
2024/01/01 12:10:06;;;;;;;;;;;23.40;34.80;;;;;;5074289;28;19931;-57
2024/01/01 12:12:38;;;;;;;;;;;23.40;34.80;;;;;;5073947;28;19924;-56
2024/01/01 12:15:17;;;;;;;;;;;23.40;34.80;;;;;;5074467;28;20298;-56
2024/01/01 12:17:46;;;;;;;;;;;23.40;34.80;;;;;;5073747;28;19967;-57
2024/01/01 12:20:13;;;;;;;;;;;23.40;34.80;;;;;;5074246;28;19931;-54
2024/01/01 12:22:41;;;;;;;;;;;23.40;34.80;;;;;;5073820;28;20374;-56
2024/01/01 12:25:15;;;;;;;;;;;23.40;34.80;;;;;;5074102;28;20350;-57
2024/01/01 12:27:43;;;;;;;;;;;23.40;34.80;;;;;;5073820;28;20426;-57
2024/01/01 12:30:24;;;;;;;;;;;23.40;34.70;;;;;;5073066;28;19931;-57
2024/01/01 12:32:51;;;;;;;;;;;23.50;34.80;;;;;;5073567;28;19967;-58
2024/01/01 12:35:19;;;;;;;;;;;23.40;34.70;;;;;;5073676;28;19928;-57
2024/01/01 12:37:47;;;;;;;;;;;23.50;34.80;;;;;;5073414;28;20356;-56
2024/01/01 12:40:14;;;;;;;;;;;23.50;34.80;;;;;;5073466;28;19975;-56
2024/01/01 12:42:41;;;;;;;;;;;23.50;34.70;;;;;;5073838;28;19976;-57
2024/01/01 12:45:09;;;;;;;;;;;23.50;34.70;;;;;;5074004;28;19924;-58
2024/01/01 12:47:35;;;;;;;;;;;23.50;34.80;;;;;;5073664;28;20285;-58
2024/01/01 12:50:02;;;;;;;;;;;23.50;34.70;;;;;;5073802;28;19970;-57
2024/01/01 12:52:29;;;;;;;;;;;23.50;34.80;;;;;;5073802;28;19925;-57
2024/01/01 12:54:59;;;;;;;;;;;23.50;34.70;;;;;;5073663;28;19982;-57
2024/01/01 12:57:28;;;;;;;;;;;23.50;34.70;;;;;;5073403;28;20023;-57
2024/01/01 12:59:55;;;;;;;;;;;23.50;34.70;;;;;;5055601;28;20121;-58
2024/01/01 13:02:22;;;;;;;;;;;23.50;34.80;;;;;;5073252;28;19924;-59
2024/01/01 13:04:49;;;;;;;;;;;23.50;34.80;;;;;;5073736;28;19931;-58
2024/01/01 13:07:16;;;;;;;;;;;23.50;34.70;;;;;;5073184;28;19971;-58
2024/01/01 13:09:43;;;;;;;;;;;23.50;34.80;;;;;;5073285;28;19958;-59
2024/01/01 13:12:10;;;;;;;;;;;23.50;34.70;;;;;;5072901;28;20386;-58
2024/01/01 13:14:40;;;;;;;;;;;23.50;34.70;;;;;;5073178;28;19929;-59
2024/01/01 13:17:07;;;;;;;;;;;23.50;34.70;;;;;;5073043;28;20420;-57
2024/01/01 13:19:36;;;;;;;;;;;23.50;34.70;;;;;;5072940;28;19930;-59
2024/01/01 13:22:03;;;;;;;;;;;23.50;34.70;;;;;;5073201;28;19924;-58
2024/01/01 13:24:34;;;;;;;;;;;23.40;34.60;;;;;;5073253;28;19931;-58
2024/01/01 13:27:01;;;;;;;;;;;23.50;34.70;;;;;;5072940;28;19972;-58
2024/01/01 13:29:27;;;;;;;;;;;23.50;34.70;;;;;;5073005;28;20305;-59
2024/01/01 13:31:54;;;;;;;;;;;23.50;34.70;;;;;;5072891;28;19929;-58
2024/01/01 13:34:22;;;;;;;;;;;23.40;34.60;;;;;;5072864;28;19931;-57
2024/01/01 13:36:49;;;;;;;;;;;23.40;34.60;;;;;;5072796;28;19994;-58
2024/01/01 13:39:16;;;;;;;;;;;23.40;34.60;;;;;;5072970;28;20022;-58
2024/01/01 13:41:43;;;;;;;;;;;23.40;34.60;;;;;;5073175;28;19935;-58
2024/01/01 13:44:10;;;;;;;;;;;23.40;35.20;;;;;;5073225;28;19932;-58
2024/01/01 13:46:38;;;;;;;;;;;23.40;34.60;;;;;;5072860;28;19990;-58
2024/01/01 13:49:05;;;;;;;;;;;23.40;34.60;;;;;;5072801;28;19928;-58
2024/01/01 13:51:33;;;;;;;;;;;23.40;34.60;;;;;;5072721;28;19931;-58
2024/01/01 13:54:00;;;;;;;;;;;23.40;34.60;;;;;;5073405;28;20005;-60
2024/01/01 13:56:27;;;;;;;;;;;23.40;34.60;;;;;;5072893;28;19968;-58
2024/01/01 13:58:54;;;;;;;;;;;23.40;34.60;;;;;;5072818;28;19924;-58
2024/01/01 14:01:21;;;;;;;;;;;23.40;34.60;;;;;;5072785;28;19924;-57
2024/01/01 14:03:49;;;;;;;;;;;23.30;34.60;;;;;;5072741;28;19925;-57
2024/01/01 14:06:16;;;;;;;;;;;23.30;34.60;;;;;;5072890;28;20380;-57
2024/01/01 14:08:43;;;;;;;;;;;23.30;34.60;;;;;;5072881;28;19924;-58
2024/01/01 14:11:10;;;;;;;;;;;23.30;34.60;;;;;;5072615;28;19954;-57
2024/01/01 14:13:37;;;;;;;;;;;23.30;34.70;;;;;;5072649;28;19963;-57
2024/01/01 14:16:04;;;;;;;;;;;23.30;34.70;;;;;;5072880;28;20271;-60
2024/01/01 14:18:31;;;;;;;;;;;23.30;34.70;;;;;;5054687;28;19925;-58
2024/01/01 14:20:58;;;;;;;;;;;23.30;34.80;;;;;;5072506;28;20018;-58